Terminal Aerodrome Forecast
Issued by NWS Cleveland, OH

Home | Current Version | Previous Version | Text Only | Print | Product List | Glossary On
Versions: 1 2 3 4 5 6 7 8 9 10 11 12 13 14 15 16 17 18
000
FTUS41 KCLE 270800 AAA
TAFERI
TAF AMD
KERI 270809Z 2708/2806 26006KT P6SM SCT008 BKN012
      TEMPO 2708/2711 BKN008
     FM271100 31006KT P6SM SCT008 BKN012
     FM271300 34006KT P6SM BKN015
     FM271600 35008KT P6SM FEW035
     FM280000 36006KT P6SM SCT250=

USA.gov is the U.S. government's official web portal to all federal, state and local government web resources and services.